BIENTÔT MET'MAP
version 2.0 !

Prévue avant fin octobre,
la nouvelle version sera
plus belle, plus complète
et hébergée sur un serveur
3 fois plus puissant...
et toujours gratuite !


Pas compatible ?
Essayez la version Mobile !

SE CONNECTER : | S'inscrire | Disclaimer | Découvrir Orbifly |
Code OACI :
Lgende : VFR VFR Marginal IFR IFR Intensif IFR Trs Intensif
Visi :
Plafond :
>= 8 km
>= 3000ft
5 8 km
1000 3000 ft
1500m 5 km
500 1000 ft
800 1500m
200 500 ft
< 800m
< 200 ft

METAR - LIRG Guidonia Airport - 29 May 2020 09:24 UTC
Data Sources :     NOAA   


- Altitude de l'aérodrome : 289 ft
- Pas de NOTAMs connus.


LIRG - Guidonia Airport

Dernier METAR connu : 2015/08/11 07:55 LIRG 110755Z VRB02KT CAVOK 24/18 Q1012
TAF TAF LIRG
Valide du 29 à 06h jusqu'au 29 à 15h UTC


290500Z 2906/2915 13006KT 9999 SCT030
TEMPO 2909/2913 4000 TSRA FEW018CB BKN020

Source NOAA


MET'MAP, la Météo Aéronautique d'un coup d'oeil ! - Copyright ORBIFLY Décembre 2007

Développement & Programmation : Alexandra Zaïnal
Co-Développement : Marc-Olivier Méhu
Soutien technique & logistique : Manuel Goepfert
Conception & Financement : Baudouin d'Aumeries